createdAt,value
2019-01-09T00:00:47.531Z,3.63
2019-01-09T00:05:51.911Z,4.53
2019-01-09T00:10:56.626Z,4.63
2019-01-09T00:16:00.725Z,4.03
2019-01-09T00:21:05.052Z,3.95
2019-01-09T00:26:09.131Z,4.80
2019-01-09T00:31:13.471Z,3.83
2019-01-09T00:36:17.554Z,3.17
2019-01-09T00:41:21.878Z,3.60
2019-01-09T00:46:26.254Z,3.40
2019-01-09T00:51:30.345Z,4.07
2019-01-09T00:56:34.752Z,3.47
2019-01-09T01:01:39.156Z,3.60
2019-01-09T01:06:53.578Z,4.20
2019-01-09T01:12:24.449Z,4.30
2019-01-09T01:17:49.645Z,4.37
2019-01-09T01:23:20.297Z,4.77
2019-01-09T01:28:39.629Z,4.23
2019-01-09T01:33:49.246Z,4.23
2019-01-09T01:39:17.168Z,4.67
2019-01-09T01:44:31.974Z,4.43
2019-01-09T01:50:05.361Z,4.60
2019-01-09T01:55:47.025Z,4.47
2019-01-09T02:01:02.453Z,4.40
2019-01-09T02:06:15.372Z,4.53
2019-01-09T02:11:24.330Z,4.50
2019-01-09T02:16:34.192Z,4.37
2019-01-09T02:21:41.324Z,4.90
2019-01-09T02:26:53.057Z,4.53
2019-01-09T02:32:07.542Z,4.43
2019-01-09T02:37:11.718Z,5.27
2019-01-09T02:42:15.767Z,4.70
2019-01-09T02:47:19.815Z,4.70
2019-01-09T02:52:24.170Z,5.30
2019-01-09T02:57:28.331Z,4.93
2019-01-09T03:02:32.976Z,4.57
2019-01-09T03:07:37.631Z,4.70
2019-01-09T03:12:42.257Z,4.20
2019-01-09T03:17:46.340Z,3.73
2019-01-09T03:22:50.680Z,4.20
2019-01-09T03:27:55.057Z,4.57
2019-01-09T03:32:59.432Z,4.50
2019-01-09T03:38:03.521Z,3.90
2019-01-09T03:43:07.565Z,3.47
2019-01-09T03:48:11.901Z,3.10
2019-01-09T03:53:16.302Z,4.05
2019-01-09T03:58:20.983Z,3.73
2019-01-09T04:03:25.629Z,3.50
2019-01-09T04:08:30.123Z,4.00
2019-01-09T04:13:34.528Z,3.37
2019-01-09T04:18:38.620Z,3.60
2019-01-09T04:23:42.673Z,3.50
2019-01-09T04:28:47.050Z,3.40
2019-01-09T04:33:51.637Z,3.80
2019-01-09T04:38:56.009Z,3.33
2019-01-09T04:44:00.389Z,3.72
2019-01-09T04:49:04.469Z,3.03
2019-01-09T04:54:08.818Z,3.30
2019-01-09T04:59:13.269Z,3.33
2019-01-09T05:04:17.651Z,3.80
2019-01-09T05:09:21.739Z,3.43
2019-01-09T05:14:26.088Z,3.40
2019-01-09T05:19:30.774Z,3.53
2019-01-09T05:24:35.146Z,3.33
2019-01-09T05:29:39.518Z,4.27
2019-01-09T05:34:43.902Z,5.27
2019-01-09T05:39:48.633Z,5.00
2019-01-09T05:44:53.011Z,4.17
2019-01-09T05:49:57.099Z,4.17
2019-01-09T05:55:01.145Z,5.17
2019-01-09T06:00:07.501Z,4.60
2019-01-09T06:05:11.546Z,5.30
2019-01-09T06:10:15.600Z,5.87
2019-01-09T06:15:20.208Z,5.33
2019-01-09T06:20:24.857Z,4.00
2019-01-09T06:25:28.992Z,3.20
2019-01-09T06:30:33.361Z,2.90
2019-01-09T06:35:38.066Z,2.70
2019-01-09T06:40:42.158Z,2.20
2019-01-09T06:45:46.742Z,1.93
2019-01-09T06:50:50.841Z,2.40
2019-01-09T06:55:55.165Z,2.43
2019-01-09T07:00:59.550Z,2.55
2019-01-09T07:06:03.642Z,2.30
2019-01-09T07:11:07.690Z,2.47
2019-01-09T07:16:12.030Z,2.37
2019-01-09T07:21:16.122Z,3.00
2019-01-09T07:26:20.946Z,3.75
2019-01-09T07:31:25.000Z,3.90
2019-01-09T07:36:29.049Z,5.00
2019-01-09T07:41:33.094Z,6.33
2019-01-09T07:46:39.517Z,10.27
2019-01-09T07:51:43.651Z,10.50
2019-01-09T07:56:48.029Z,10.33
2019-01-09T08:01:52.403Z,9.67
2019-01-09T08:06:56.508Z,9.77
2019-01-09T08:12:00.933Z,9.17
2019-01-09T08:17:05.310Z,8.35
2019-01-09T08:22:09.686Z,7.53
2019-01-09T08:27:14.104Z,5.77
2019-01-09T08:32:18.385Z,5.00
2019-01-09T08:37:23.068Z,4.77
2019-01-09T08:42:27.225Z,4.55
2019-01-09T08:47:31.512Z,4.50
2019-01-09T08:52:37.212Z,4.60
2019-01-09T08:57:41.599Z,4.80
2019-01-09T09:02:45.947Z,4.50
2019-01-09T09:07:54.925Z,4.93
2019-01-09T09:12:59.303Z,5.27
2019-01-09T09:18:03.385Z,5.10
2019-01-09T09:23:07.434Z,4.70
2019-01-09T09:28:11.769Z,6.30
2019-01-09T09:33:16.149Z,6.17
2019-01-09T09:38:20.838Z,6.50
2019-01-09T09:43:25.465Z,6.60
2019-01-09T09:48:29.601Z,6.63
2019-01-09T09:53:33.646Z,7.05
2019-01-09T09:58:37.987Z,6.40
2019-01-09T10:03:42.141Z,6.27
2019-01-09T10:08:46.479Z,7.85
2019-01-09T10:13:50.839Z,6.07
2019-01-09T10:18:55.171Z,6.57
2019-01-09T10:24:01.998Z,6.93
2019-01-09T10:29:06.375Z,5.67
2019-01-09T10:34:10.491Z,5.30
2019-01-09T10:39:14.601Z,5.27
2019-01-09T10:44:18.958Z,5.20
2019-01-09T10:49:23.278Z,4.67
2019-01-09T10:54:28.042Z,6.20
2019-01-09T10:59:32.420Z,5.20
2019-01-09T11:04:36.798Z,5.17
2019-01-09T11:09:41.203Z,5.83
2019-01-09T11:14:45.540Z,5.00
2019-01-09T11:19:50.227Z,5.97
2019-01-09T11:24:54.607Z,4.93
2019-01-09T11:29:58.694Z,5.70
2019-01-09T11:35:03.033Z,5.37
2019-01-09T11:40:11.826Z,4.60
2019-01-09T11:45:19.422Z,5.93
2019-01-09T11:50:23.858Z,6.13
2019-01-09T11:55:28.034Z,7.07
2019-01-09T12:00:32.156Z,6.50
2019-01-09T12:05:36.485Z,5.63
2019-01-09T12:10:41.076Z,5.10
2019-01-09T12:15:45.458Z,3.63
2019-01-09T12:20:49.793Z,3.90
2019-01-09T12:25:54.171Z,3.53
2019-01-09T12:30:58.826Z,3.10
2019-01-09T12:36:03.477Z,4.37
2019-01-09T12:41:09.014Z,2.80
2019-01-09T12:46:13.093Z,2.87
2019-01-09T12:51:17.433Z,3.10
2019-01-09T12:56:21.878Z,3.13
2019-01-09T13:01:27.504Z,2.93
2019-01-09T13:06:31.551Z,2.83
2019-01-09T13:11:35.994Z,2.60
2019-01-09T13:16:47.645Z,3.00
2019-01-09T13:21:46.550Z,3.20
2019-01-09T13:26:50.599Z,2.53
2019-01-09T13:31:54.938Z,2.87
2019-01-09T13:36:59.365Z,2.87
2019-01-09T13:42:05.633Z,2.50
2019-01-09T13:47:09.977Z,2.60
2019-01-09T13:52:14.347Z,2.90
2019-01-09T13:57:18.727Z,2.90
2019-01-09T14:02:23.335Z,2.80
2019-01-09T14:07:27.429Z,2.33
2019-01-09T14:12:31.480Z,2.80
2019-01-09T14:17:35.781Z,2.67
2019-01-09T14:22:40.259Z,3.00
2019-01-09T14:27:44.778Z,2.97
2019-01-09T14:32:49.146Z,2.90
2019-01-09T14:37:53.690Z,3.00
2019-01-09T14:42:58.056Z,2.80
2019-01-09T14:48:02.140Z,2.60
2019-01-09T14:53:06.475Z,2.60
2019-01-09T14:58:10.851Z,3.40
2019-01-09T15:03:15.217Z,2.97
2019-01-09T15:08:19.293Z,2.77
2019-01-09T15:13:23.667Z,2.60
2019-01-09T15:18:28.050Z,2.80
2019-01-09T15:23:32.075Z,2.90
2019-01-09T15:28:36.354Z,3.00
2019-01-09T15:33:41.441Z,2.80
2019-01-09T15:38:46.440Z,2.67
2019-01-09T15:43:51.659Z,2.80
2019-01-09T15:48:55.654Z,3.10
2019-01-09T15:54:00.222Z,2.62
2019-01-09T15:59:04.943Z,2.60
2019-01-09T16:04:09.002Z,2.77
2019-01-09T16:09:13.062Z,3.37
2019-01-09T16:14:17.114Z,3.33
2019-01-09T16:19:21.753Z,2.90
2019-01-09T16:24:27.654Z,3.10
2019-01-09T16:29:33.922Z,3.40
2019-01-09T16:34:38.406Z,2.70
2019-01-09T16:39:42.441Z,2.80
2019-01-09T16:44:46.764Z,3.17
2019-01-09T16:49:52.979Z,2.40
2019-01-09T16:54:57.134Z,2.67
2019-01-09T17:00:01.212Z,2.67
2019-01-09T17:05:08.377Z,3.22
2019-01-09T17:10:14.949Z,2.80
2019-01-09T17:15:19.845Z,3.07
2019-01-09T17:20:32.406Z,2.83
2019-01-09T17:25:36.473Z,3.17
2019-01-09T17:30:40.936Z,3.60
2019-01-09T17:35:45.006Z,3.20
2019-01-09T17:40:49.667Z,3.60
2019-01-09T17:45:53.749Z,3.57
2019-01-09T17:50:58.097Z,3.80
2019-01-09T17:56:02.139Z,3.20
2019-01-09T18:01:07.122Z,3.80
2019-01-09T18:06:11.497Z,3.70
2019-01-09T18:11:15.949Z,3.57
2019-01-09T18:16:19.981Z,3.63
2019-01-09T18:21:24.371Z,3.77
2019-01-09T18:26:29.109Z,3.53
2019-01-09T18:31:44.949Z,3.50
2019-01-09T18:36:56.933Z,4.00
2019-01-09T18:42:13.006Z,4.80
2019-01-09T18:47:42.555Z,3.47
2019-01-09T18:52:52.861Z,3.50
2019-01-09T18:57:57.253Z,4.00
2019-01-09T19:03:01.346Z,3.67
2019-01-09T19:08:06.079Z,3.30
2019-01-09T19:13:11.749Z,3.83
2019-01-09T19:18:15.922Z,3.77
2019-01-09T19:23:20.026Z,3.67
2019-01-09T19:28:24.153Z,3.73
2019-01-09T19:33:28.729Z,3.60
2019-01-09T19:38:33.410Z,3.50
2019-01-09T19:43:37.856Z,3.90
2019-01-09T19:48:42.011Z,3.30
2019-01-09T19:53:47.478Z,4.10
2019-01-09T19:58:51.905Z,3.37
2019-01-09T20:03:56.393Z,3.77
2019-01-09T20:09:00.978Z,3.93
2019-01-09T20:14:05.211Z,3.15
2019-01-09T20:19:09.535Z,3.60
2019-01-09T20:24:14.126Z,3.40
2019-01-09T20:29:18.846Z,3.50
2019-01-09T20:34:23.286Z,3.87
2019-01-09T20:39:27.778Z,3.40
2019-01-09T20:44:31.881Z,3.70
2019-01-09T20:49:36.236Z,3.67
2019-01-09T20:54:40.314Z,3.10
2019-01-09T20:59:44.470Z,3.57
2019-01-09T21:04:48.889Z,3.73
2019-01-09T21:09:53.112Z,3.53
2019-01-09T21:14:57.668Z,3.60
2019-01-09T21:20:01.792Z,3.80
2019-01-09T21:25:07.601Z,3.63
2019-01-09T21:30:23.689Z,3.77
2019-01-09T21:35:28.039Z,3.10
2019-01-09T21:40:32.113Z,3.57
2019-01-09T21:45:36.524Z,3.70
2019-01-09T21:50:40.894Z,3.40
2019-01-09T21:55:45.547Z,3.20
2019-01-09T22:00:49.961Z,3.23
2019-01-09T22:05:55.517Z,3.37
2019-01-09T22:10:59.865Z,3.47
2019-01-09T22:16:04.739Z,4.20
2019-01-09T22:21:09.120Z,3.93
2019-01-09T22:26:13.501Z,3.98
2019-01-09T22:31:36.996Z,3.90
2019-01-09T22:36:41.393Z,3.80
2019-01-09T22:41:46.080Z,4.17
2019-01-09T22:46:50.167Z,3.93
2019-01-09T22:51:54.213Z,4.67
2019-01-09T22:56:58.254Z,4.13
2019-01-09T23:02:04.230Z,4.23
2019-01-09T23:07:08.635Z,3.60
2019-01-09T23:12:20.860Z,3.80
2019-01-09T23:17:18.932Z,3.70
2019-01-09T23:22:23.677Z,4.13
2019-01-09T23:27:28.730Z,4.30
2019-01-09T23:32:33.182Z,4.77
2019-01-09T23:37:37.554Z,4.47
2019-01-09T23:42:41.811Z,4.57
2019-01-09T23:47:45.928Z,4.70
2019-01-09T23:52:49.976Z,5.23
2019-01-09T23:57:54.310Z,4.90
